createdAt,value
2023-07-27T00:04:17.505Z,97011.44
2023-07-27T00:09:10.834Z,97009.34
2023-07-27T00:14:04.199Z,97018.84
2023-07-27T00:18:57.515Z,97019.50
2023-07-27T00:23:52.229Z,97025.00
2023-07-27T00:28:45.592Z,97026.31
2023-07-27T00:33:38.930Z,97010.19
2023-07-27T00:38:32.291Z,97004.94
2023-07-27T00:43:27.020Z,97000.47
2023-07-27T00:48:21.239Z,97008.09
2023-07-27T00:53:16.975Z,96998.69
2023-07-27T00:58:10.940Z,96986.03
2023-07-27T01:03:06.687Z,96988.78
2023-07-27T01:08:00.042Z,96981.66
2023-07-27T01:13:04.937Z,96971.66
2023-07-27T01:18:09.696Z,96972.56
2023-07-27T01:23:40.417Z,96966.88
2023-07-27T01:28:59.817Z,96953.03
2023-07-27T01:34:02.079Z,96958.56
2023-07-27T01:39:01.251Z,96947.19
2023-07-27T01:43:55.545Z,96941.81
2023-07-27T01:48:52.284Z,96936.81
2023-07-27T01:53:50.122Z,96940.34
2023-07-27T01:58:44.774Z,96943.94
2023-07-27T02:03:38.816Z,96946.88
2023-07-27T02:08:32.269Z,96942.81
2023-07-27T02:13:35.515Z,96937.13
2023-07-27T02:18:32.096Z,96931.63
2023-07-27T02:23:26.522Z,96924.03
2023-07-27T02:28:19.795Z,96922.75
2023-07-27T02:33:14.501Z,96906.41
2023-07-27T02:38:07.797Z,96889.22
2023-07-27T02:43:01.169Z,96885.63
2023-07-27T02:47:54.478Z,96894.28
2023-07-27T02:52:49.225Z,96881.78
2023-07-27T02:57:42.531Z,96872.78
2023-07-27T03:02:35.952Z,96866.91
2023-07-27T03:07:29.378Z,96870.28
2023-07-27T03:12:24.062Z,96882.41
2023-07-27T03:17:17.451Z,96875.16
2023-07-27T03:22:10.782Z,96880.78
2023-07-27T03:27:04.151Z,96876.53
2023-07-27T03:31:58.759Z,96869.63
2023-07-27T03:36:52.039Z,96887.50
2023-07-27T03:41:45.428Z,96885.22
2023-07-27T03:46:38.796Z,96884.19
2023-07-27T03:51:33.451Z,96875.72
2023-07-27T03:56:26.792Z,96871.34
2023-07-27T04:01:20.676Z,96866.47
2023-07-27T04:06:13.965Z,96867.88
2023-07-27T04:11:08.647Z,96857.81
2023-07-27T04:16:01.965Z,96856.31
2023-07-27T04:20:55.325Z,96855.13
2023-07-27T04:25:48.590Z,96858.03
2023-07-27T04:30:43.454Z,96846.03
2023-07-27T04:35:36.751Z,96847.94
2023-07-27T04:40:30.078Z,96841.84
2023-07-27T04:45:23.423Z,96835.91
2023-07-27T04:50:18.276Z,96828.88
2023-07-27T04:55:11.560Z,96827.31
2023-07-27T05:00:06.193Z,96824.16
2023-07-27T05:04:59.521Z,96824.06
2023-07-27T05:09:54.399Z,96832.13
2023-07-27T05:14:47.692Z,96830.69
2023-07-27T05:19:41.065Z,96833.69
2023-07-27T05:24:34.476Z,96830.41
2023-07-27T05:29:29.211Z,96821.16
2023-07-27T05:34:22.484Z,96817.41
2023-07-27T05:39:15.836Z,96818.78
2023-07-27T05:44:09.290Z,96821.53
2023-07-27T05:49:06.978Z,96820.56
2023-07-27T05:54:01.733Z,96819.63
2023-07-27T05:58:55.092Z,96820.03
2023-07-27T06:04:05.340Z,96815.88
2023-07-27T06:09:01.811Z,96815.44
2023-07-27T06:13:55.134Z,96816.41
2023-07-27T06:18:48.734Z,96819.88
2023-07-27T06:23:42.064Z,96822.78
2023-07-27T06:28:37.444Z,96818.34
2023-07-27T06:33:30.962Z,96815.44
2023-07-27T06:38:24.399Z,96818.06
2023-07-27T06:43:17.744Z,96805.97
2023-07-27T06:48:12.656Z,96815.69
2023-07-27T06:53:06.105Z,96808.19
2023-07-27T06:57:59.407Z,96812.66
2023-07-27T07:02:52.983Z,96811.94
2023-07-27T07:07:47.840Z,96805.81
2023-07-27T07:12:41.296Z,96807.31
2023-07-27T07:17:34.925Z,96819.38
2023-07-27T07:22:28.339Z,96813.50
2023-07-27T07:27:23.083Z,96805.03
2023-07-27T07:32:16.427Z,96812.50
2023-07-27T07:37:23.028Z,96823.66
2023-07-27T07:42:16.437Z,96819.47
2023-07-27T07:47:11.203Z,96808.28
2023-07-27T07:52:04.792Z,96799.72
2023-07-27T07:56:58.417Z,96800.00
2023-07-27T08:01:52.006Z,96789.00
2023-07-27T08:06:47.066Z,96796.88
2023-07-27T08:11:42.680Z,96794.31
2023-07-27T08:16:36.640Z,96788.47
2023-07-27T08:21:30.738Z,96792.41
2023-07-27T08:26:26.866Z,96789.25
2023-07-27T08:31:20.295Z,96765.72
2023-07-27T08:36:13.676Z,96762.53
2023-07-27T08:41:07.090Z,96772.56
2023-07-27T08:46:02.203Z,96766.31
2023-07-27T08:50:56.823Z,96758.66
2023-07-27T08:55:50.247Z,96757.97
2023-07-27T09:00:44.015Z,96747.28
2023-07-27T09:05:44.007Z,96754.63
2023-07-27T09:10:38.443Z,96759.63
2023-07-27T09:15:32.313Z,96763.91
2023-07-27T09:20:25.685Z,96767.13
2023-07-27T09:25:23.570Z,96769.78
2023-07-27T09:30:19.442Z,96762.50
2023-07-27T09:35:15.818Z,96746.41
2023-07-27T09:40:11.951Z,96740.16
2023-07-27T09:45:08.135Z,96752.44
2023-07-27T09:50:02.040Z,96743.31
2023-07-27T09:54:58.387Z,96740.31
2023-07-27T09:59:53.720Z,96736.66
2023-07-27T10:04:51.115Z,96727.31
2023-07-27T10:09:44.608Z,96731.03
2023-07-27T10:14:41.837Z,96722.13
2023-07-27T10:19:43.369Z,96723.16
2023-07-27T10:24:51.489Z,96720.63
2023-07-27T10:29:50.225Z,96718.28
2023-07-27T10:34:43.673Z,96716.63
2023-07-27T10:39:45.828Z,96722.66
2023-07-27T10:44:47.802Z,96702.97
2023-07-27T10:49:42.927Z,96703.31
2023-07-27T10:54:42.097Z,96705.50
2023-07-27T10:59:40.468Z,96704.72
2023-07-27T11:04:36.971Z,96697.91
2023-07-27T11:09:30.309Z,96689.75
2023-07-27T11:14:23.629Z,96682.81
2023-07-27T11:19:17.249Z,96675.44
2023-07-27T11:24:12.328Z,96671.50
2023-07-27T11:29:05.878Z,96672.31
2023-07-27T11:34:00.921Z,96667.03
2023-07-27T11:38:54.342Z,96654.94
2023-07-27T11:43:53.460Z,96653.84
2023-07-27T11:48:50.700Z,96641.19
2023-07-27T11:53:55.301Z,96641.22
2023-07-27T11:58:50.054Z,96634.00
2023-07-27T12:03:47.013Z,96628.94
2023-07-27T12:23:33.291Z,96622.44
2023-07-27T12:43:14.812Z,96612.91
2023-07-27T12:48:08.782Z,96618.19
2023-07-27T12:53:02.284Z,96614.56
2023-07-27T12:57:57.061Z,96605.00
2023-07-27T13:02:50.420Z,96595.31
2023-07-27T13:07:45.751Z,96585.47
2023-07-27T13:12:39.212Z,96587.31
2023-07-27T13:17:35.054Z,96577.50
2023-07-27T13:22:28.592Z,96564.66
2023-07-27T13:27:23.118Z,96555.28
2023-07-27T13:32:16.466Z,96556.25
2023-07-27T13:37:11.176Z,96553.38
2023-07-27T13:42:04.759Z,96564.50
2023-07-27T13:46:58.062Z,96559.25
2023-07-27T13:51:51.551Z,96551.72
2023-07-27T13:56:46.209Z,96551.44
2023-07-27T14:01:39.712Z,96554.75
2023-07-27T14:06:33.184Z,96546.94
2023-07-27T14:11:26.678Z,96544.84
2023-07-27T14:16:24.617Z,96532.94
2023-07-27T14:21:18.007Z,96518.91
2023-07-27T14:26:12.710Z,96519.81
2023-07-27T14:31:13.547Z,96513.03
2023-07-27T14:36:08.914Z,96512.72
2023-07-27T14:41:02.255Z,96510.88
2023-07-27T14:45:55.657Z,96501.75
2023-07-27T14:50:49.466Z,96504.84
2023-07-27T14:55:46.223Z,96500.72
2023-07-27T15:00:39.738Z,96509.16
2023-07-27T15:05:33.302Z,96494.75
2023-07-27T15:10:32.024Z,96497.81
2023-07-27T15:15:28.013Z,96498.47
2023-07-27T15:20:21.771Z,96489.16
2023-07-27T15:25:15.162Z,96498.63
2023-07-27T15:30:09.708Z,96493.81
2023-07-27T15:35:04.759Z,96491.16
2023-07-27T15:39:58.046Z,96486.63
2023-07-27T15:44:51.479Z,96479.72
2023-07-27T15:49:44.818Z,96472.47
2023-07-27T15:54:39.431Z,96480.03
2023-07-27T15:59:32.790Z,96476.31
2023-07-27T16:04:26.115Z,96473.00
2023-07-27T16:09:21.241Z,96463.06
2023-07-27T16:14:15.968Z,96451.91
2023-07-27T16:19:09.309Z,96449.44
2023-07-27T16:24:04.107Z,96447.59
2023-07-27T16:28:57.705Z,96444.72
2023-07-27T16:33:52.429Z,96437.16
2023-07-27T16:38:45.725Z,96438.41
2023-07-27T16:43:39.315Z,96436.31
2023-07-27T16:48:32.873Z,96415.59
2023-07-27T16:53:28.253Z,96414.63
2023-07-27T16:58:22.280Z,96415.22
2023-07-27T17:03:15.677Z,96409.63
2023-07-27T17:08:12.387Z,96407.66
2023-07-27T17:13:07.118Z,96400.97
2023-07-27T17:18:00.526Z,96404.59
2023-07-27T17:22:53.905Z,96409.41
2023-07-27T17:27:47.517Z,96402.50
2023-07-27T17:32:43.024Z,96401.59
2023-07-27T17:37:36.539Z,96404.75
2023-07-27T17:42:29.852Z,96395.91
2023-07-27T17:47:23.132Z,96394.94
2023-07-27T17:52:17.816Z,96398.00
2023-07-27T17:57:11.104Z,96404.75
2023-07-27T18:02:07.602Z,96407.34
2023-07-27T18:07:01.068Z,96407.88
2023-07-27T18:11:55.803Z,96407.31
2023-07-27T18:16:49.115Z,96409.19
2023-07-27T18:21:42.425Z,96402.16
2023-07-27T18:26:35.865Z,96406.13
2023-07-27T18:31:30.611Z,96399.78
2023-07-27T18:36:24.074Z,96400.59
2023-07-27T18:41:18.305Z,96401.91
2023-07-27T18:46:12.084Z,96397.97
2023-07-27T18:51:06.828Z,96400.13
2023-07-27T18:56:00.232Z,96401.41
2023-07-27T19:00:53.799Z,96401.13
2023-07-27T19:05:47.295Z,96399.91
2023-07-27T19:10:42.069Z,96398.53
2023-07-27T19:15:35.530Z,96405.06
2023-07-27T19:20:28.990Z,96408.88
2023-07-27T19:25:22.628Z,96405.25
2023-07-27T19:30:18.927Z,96409.91
2023-07-27T19:35:12.632Z,96409.59
2023-07-27T19:40:07.142Z,96415.25
2023-07-27T19:45:00.462Z,96414.41
2023-07-27T19:50:05.126Z,96413.28
2023-07-27T19:54:59.246Z,96410.53
2023-07-27T19:59:56.030Z,96398.88
2023-07-27T20:04:51.507Z,96404.47
2023-07-27T20:09:46.199Z,96402.28
2023-07-27T20:14:39.506Z,96415.16
2023-07-27T20:19:35.861Z,96419.44
2023-07-27T20:24:31.793Z,96425.13
2023-07-27T20:29:33.757Z,96428.94
2023-07-27T20:34:27.353Z,96417.78
2023-07-27T20:39:22.560Z,96426.28
2023-07-27T20:44:15.801Z,96419.97
2023-07-27T20:49:10.524Z,96428.03
2023-07-27T20:54:03.768Z,96426.78
2023-07-27T20:58:58.529Z,96429.66
2023-07-27T21:03:51.823Z,96432.84
2023-07-27T21:08:46.497Z,96431.84
2023-07-27T21:13:39.790Z,96424.59
2023-07-27T21:18:33.731Z,96428.44
2023-07-27T21:23:27.433Z,96425.59
2023-07-27T21:28:22.283Z,96426.13
2023-07-27T21:33:27.340Z,96428.28
2023-07-27T21:38:21.579Z,96432.19
2023-07-27T21:43:14.989Z,96432.66
2023-07-27T21:48:10.016Z,96430.25
2023-07-27T21:53:03.283Z,96423.47
2023-07-27T21:57:58.439Z,96414.91
2023-07-27T22:02:51.744Z,96405.47
2023-07-27T22:07:46.559Z,96415.69
2023-07-27T22:12:39.954Z,96407.22
2023-07-27T22:17:33.266Z,96420.66
2023-07-27T22:22:26.633Z,96430.91
2023-07-27T22:27:21.348Z,96428.63
2023-07-27T22:32:14.766Z,96424.44
2023-07-27T22:37:08.217Z,96433.28
2023-07-27T22:42:01.535Z,96440.25
2023-07-27T22:46:56.226Z,96433.59
2023-07-27T22:51:49.563Z,96422.03
2023-07-27T22:56:42.888Z,96423.47
2023-07-27T23:01:36.247Z,96407.25
2023-07-27T23:06:31.475Z,96408.44
2023-07-27T23:11:24.961Z,96401.50
2023-07-27T23:16:18.248Z,96403.00
2023-07-27T23:21:11.588Z,96405.84
2023-07-27T23:26:06.270Z,96406.50
2023-07-27T23:31:00.325Z,96405.16
2023-07-27T23:35:53.765Z,96397.91
2023-07-27T23:40:47.055Z,96400.03
2023-07-27T23:45:41.779Z,96398.06
2023-07-27T23:50:35.127Z,96402.75
2023-07-27T23:55:28.488Z,96383.69
